Metar z połowy godziny Komunikat METAR ze strony awiacja.imgw.pl Metar G30 EPKS METAR EPKS 240500Z 20008KT 5000 BR SCT008 BKN012 02/M00 Q1019 RMK 022 085 7/4=